Mafeking, South Africa
Current Conditions -  °F | °C
As of 4:00 PM on Saturday 22 Nov 2014 (Local Time) from FAMM Reporting Station
Broken Clouds Broken Clouds  
Wind Chill: 82°   Ceiling: 10000
Heat Index: 82°   Visibility: 6mi
Dew Point: 45°   Wind: 10mph
Humidity: 26%   Direction: 350°N
Pressure: 30.06"   Gusts: NA
Location:  25.86°S, 25.65°E
Report Text: FAMM 221400Z 35009KT 9999 FEW030 BKN100 28/07 Q1018 NOSIG
Loading
Personal Weather Stations






























Interactive Weather Map New forecast layout! Learn more

10-Day Weather Forecast

Advertisements
Track Severe Weather on mobile